sensor_id;sensor_type;location;lat;lon;timestamp;pressure;altitude;pressure_sealevel;temperature;humidity
63903;BME280;50072;50.678;13.938;2023-05-25T00:01:30;100264.03;;;7.32;88.74
63903;BME280;50072;50.678;13.938;2023-05-25T00:03:59;100263.16;;;7.35;89.69
63903;BME280;50072;50.678;13.938;2023-05-25T00:06:27;100260.47;;;7.35;90.61
63903;BME280;50072;50.678;13.938;2023-05-25T00:08:55;100261.38;;;7.37;90.28
63903;BME280;50072;50.678;13.938;2023-05-25T00:11:23;100262.28;;;7.31;90.67
63903;BME280;50072;50.678;13.938;2023-05-25T00:13:50;100264.03;;;7.34;90.66
63903;BME280;50072;50.678;13.938;2023-05-25T00:16:16;100264.06;;;7.14;90.03
63903;BME280;50072;50.678;13.938;2023-05-25T00:18:42;100256.13;;;7.01;90.18
63903;BME280;50072;50.678;13.938;2023-05-25T00:21:09;100272.06;;;7.07;91.14
63903;BME280;50072;50.678;13.938;2023-05-25T00:23:35;100264.97;;;7.00;90.61
63903;BME280;50072;50.678;13.938;2023-05-25T00:26:02;100260.56;;;6.96;91.18
63903;BME280;50072;50.678;13.938;2023-05-25T00:28:28;100264.09;;;6.90;91.58
63903;BME280;50072;50.678;13.938;2023-05-25T00:30:54;100257.88;;;6.84;91.76
63903;BME280;50072;50.678;13.938;2023-05-25T00:33:20;100268.56;;;6.68;93.85
63903;BME280;50072;50.678;13.938;2023-05-25T00:35:46;100257.88;;;6.65;94.45
63903;BME280;50072;50.678;13.938;2023-05-25T00:38:16;100261.44;;;6.67;94.09
63903;BME280;50072;50.678;13.938;2023-05-25T00:40:43;100248.13;;;6.58;95.48
63903;BME280;50072;50.678;13.938;2023-05-25T00:43:11;100241.94;;;6.62;96.10
63903;BME280;50072;50.678;13.938;2023-05-25T00:45:37;100252.56;;;6.65;95.98
63903;BME280;50072;50.678;13.938;2023-05-25T00:48:04;100247.28;;;6.70;95.62
63903;BME280;50072;50.678;13.938;2023-05-25T00:50:41;100250.81;;;6.73;95.28
63903;BME280;50072;50.678;13.938;2023-05-25T00:53:09;100251.66;;;6.74;94.73
63903;BME280;50072;50.678;13.938;2023-05-25T00:55:40;100259.66;;;6.72;95.02
63903;BME280;50072;50.678;13.938;2023-05-25T00:58:10;100246.34;;;6.54;92.11
63903;BME280;50072;50.678;13.938;2023-05-25T01:00:36;100249.03;;;6.43;92.95
63903;BME280;50072;50.678;13.938;2023-05-25T01:03:11;100249.03;;;6.38;93.23
63903;BME280;50072;50.678;13.938;2023-05-25T01:05:39;100247.25;;;6.37;93.91
63903;BME280;50072;50.678;13.938;2023-05-25T01:08:08;100244.56;;;6.45;95.39
63903;BME280;50072;50.678;13.938;2023-05-25T01:10:36;100246.38;;;6.43;96.12
63903;BME280;50072;50.678;13.938;2023-05-25T01:13:03;100242.81;;;6.53;96.22
63903;BME280;50072;50.678;13.938;2023-05-25T01:15:31;100249.00;;;6.48;95.96
63903;BME280;50072;50.678;13.938;2023-05-25T01:17:57;100250.78;;;6.41;95.29
63903;BME280;50072;50.678;13.938;2023-05-25T01:20:25;100256.09;;;6.36;95.57
63903;BME280;50072;50.678;13.938;2023-05-25T01:30:45;100241.03;;;6.23;97.90
63903;BME280;50072;50.678;13.938;2023-05-25T01:33:11;100250.75;;;6.21;97.54
63903;BME280;50072;50.678;13.938;2023-05-25T01:35:40;100241.03;;;6.25;97.04
63903;BME280;50072;50.678;13.938;2023-05-25T01:38:06;100246.34;;;6.26;96.54
63903;BME280;50072;50.678;13.938;2023-05-25T01:40:39;100246.28;;;6.06;95.46
63903;BME280;50072;50.678;13.938;2023-05-25T01:43:05;100256.91;;;6.03;96.39
63903;BME280;50072;50.678;13.938;2023-05-25T01:45:31;100257.78;;;6.00;96.57
63903;BME280;50072;50.678;13.938;2023-05-25T01:48:07;100256.06;;;6.10;97.50
63903;BME280;50072;50.678;13.938;2023-05-25T01:53:28;100263.06;;;5.96;96.66
63903;BME280;50072;50.678;13.938;2023-05-25T01:56:01;100263.97;;;6.04;97.22
63903;BME280;50072;50.678;13.938;2023-05-25T01:58:28;100266.69;;;6.09;97.60
63903;BME280;50072;50.678;13.938;2023-05-25T02:00:59;100267.53;;;6.01;98.10
63903;BME280;50072;50.678;13.938;2023-05-25T02:03:25;100257.78;;;6.05;98.48
63903;BME280;50072;50.678;13.938;2023-05-25T02:05:53;100266.69;;;6.09;98.25
63903;BME280;50072;50.678;13.938;2023-05-25T02:08:19;100271.97;;;6.05;98.93
63903;BME280;50072;50.678;13.938;2023-05-25T02:10:47;100262.25;;;6.08;99.02
63903;BME280;50072;50.678;13.938;2023-05-25T02:13:19;100265.78;;;6.08;99.85
63903;BME280;50072;50.678;13.938;2023-05-25T02:15:45;100265.78;;;6.07;99.68
63903;BME280;50072;50.678;13.938;2023-05-25T02:18:12;100267.56;;;6.06;99.35
63903;BME280;50072;50.678;13.938;2023-05-25T02:20:38;100263.09;;;6.03;98.50
63903;BME280;50072;50.678;13.938;2023-05-25T02:23:04;100263.09;;;6.03;99.17
63903;BME280;50072;50.678;13.938;2023-05-25T02:25:30;100278.19;;;6.11;99.39
63903;BME280;50072;50.678;13.938;2023-05-25T02:27:55;100269.28;;;6.02;98.77
63903;BME280;50072;50.678;13.938;2023-05-25T02:30:21;100270.22;;;6.08;98.15
63903;BME280;50072;50.678;13.938;2023-05-25T02:32:47;100263.09;;;6.00;98.79
63903;BME280;50072;50.678;13.938;2023-05-25T02:35:15;100260.38;;;5.93;97.51
63903;BME280;50072;50.678;13.938;2023-05-25T02:37:40;100259.50;;;5.92;98.42
63903;BME280;50072;50.678;13.938;2023-05-25T02:40:07;100269.22;;;5.87;98.54
63903;BME280;50072;50.678;13.938;2023-05-25T02:42:35;100248.84;;;5.84;98.65
63903;BME280;50072;50.678;13.938;2023-05-25T02:45:01;100256.75;;;5.69;99.02
63903;BME280;50072;50.678;13.938;2023-05-25T02:47:26;100260.28;;;5.69;100.00
63903;BME280;50072;50.678;13.938;2023-05-25T02:49:52;100269.97;;;5.61;100.00
63903;BME280;50072;50.678;13.938;2023-05-25T02:52:18;100272.63;;;5.57;100.00
63903;BME280;50072;50.678;13.938;2023-05-25T02:54:44;100284.09;;;5.51;100.00
63903;BME280;50072;50.678;13.938;2023-05-25T02:57:10;100279.69;;;5.53;100.00
63903;BME280;50072;50.678;13.938;2023-05-25T02:59:36;100279.66;;;5.48;100.00
63903;BME280;50072;50.678;13.938;2023-05-25T03:02:02;100283.22;;;5.52;100.00
63903;BME280;50072;50.678;13.938;2023-05-25T03:04:28;100288.53;;;5.49;100.00
63903;BME280;50072;50.678;13.938;2023-05-25T03:06:55;100289.41;;;5.51;100.00
63903;BME280;50072;50.678;13.938;2023-05-25T03:09:21;100301.81;;;5.55;100.00
63903;BME280;50072;50.678;13.938;2023-05-25T03:11:47;100293.00;;;5.62;100.00
63903;BME280;50072;50.678;13.938;2023-05-25T03:14:12;100299.19;;;5.60;100.00
63903;BME280;50072;50.678;13.938;2023-05-25T03:16:38;100297.44;;;5.59;100.00
63903;BME280;50072;50.678;13.938;2023-05-25T03:19:04;100297.44;;;5.60;100.00
63903;BME280;50072;50.678;13.938;2023-05-25T03:21:31;100296.59;;;5.64;100.00
63903;BME280;50072;50.678;13.938;2023-05-25T03:23:57;100309.81;;;5.63;100.00
63903;BME280;50072;50.678;13.938;2023-05-25T03:26:24;100301.91;;;5.64;100.00
63903;BME280;50072;50.678;13.938;2023-05-25T03:28:51;100307.16;;;5.58;100.00
63903;BME280;50072;50.678;13.938;2023-05-25T03:31:17;100311.59;;;5.58;100.00
63903;BME280;50072;50.678;13.938;2023-05-25T03:33:43;100306.28;;;5.58;100.00
63903;BME280;50072;50.678;13.938;2023-05-25T03:36:09;100314.25;;;5.61;100.00
63903;BME280;50072;50.678;13.938;2023-05-25T03:38:37;100318.72;;;5.66;100.00
63903;BME280;50072;50.678;13.938;2023-05-25T03:41:03;100308.06;;;5.65;100.00
63903;BME280;50072;50.678;13.938;2023-05-25T03:43:29;100316.06;;;5.66;100.00
63903;BME280;50072;50.678;13.938;2023-05-25T03:45:55;100317.00;;;5.76;100.00
63903;BME280;50072;50.678;13.938;2023-05-25T03:48:22;100324.97;;;5.84;100.00
63903;BME280;50072;50.678;13.938;2023-05-25T03:50:47;100324.13;;;5.90;100.00
63903;BME280;50072;50.678;13.938;2023-05-25T03:53:13;100323.25;;;5.95;100.00
63903;BME280;50072;50.678;13.938;2023-05-25T03:55:39;100325.09;;;6.02;100.00
63903;BME280;50072;50.678;13.938;2023-05-25T03:58:05;100325.16;;;6.09;100.00
63903;BME280;50072;50.678;13.938;2023-05-25T04:00:30;100327.81;;;6.10;100.00
63903;BME280;50072;50.678;13.938;2023-05-25T04:02:56;100327.81;;;6.15;100.00
63903;BME280;50072;50.678;13.938;2023-05-25T04:05:23;100336.72;;;6.28;100.00
63903;BME280;50072;50.678;13.938;2023-05-25T04:07:49;100333.19;;;6.35;100.00
63903;BME280;50072;50.678;13.938;2023-05-25T04:10:14;100336.72;;;6.35;100.00
63903;BME280;50072;50.678;13.938;2023-05-25T04:12:40;100338.50;;;6.38;100.00
63903;BME280;50072;50.678;13.938;2023-05-25T04:15:06;100345.63;;;6.47;100.00
63903;BME280;50072;50.678;13.938;2023-05-25T04:17:34;100341.22;;;6.58;100.00
63903;BME280;50072;50.678;13.938;2023-05-25T04:20:01;100350.09;;;6.62;100.00
63903;BME280;50072;50.678;13.938;2023-05-25T04:22:27;100347.44;;;6.71;100.00
63903;BME280;50072;50.678;13.938;2023-05-25T04:24:53;100349.22;;;6.70;100.00
63903;BME280;50072;50.678;13.938;2023-05-25T04:27:19;100347.47;;;6.76;100.00
63903;BME280;50072;50.678;13.938;2023-05-25T04:29:47;100356.31;;;6.81;100.00
63903;BME280;50072;50.678;13.938;2023-05-25T04:32:15;100346.59;;;6.86;100.00
63903;BME280;50072;50.678;13.938;2023-05-25T04:34:43;100352.78;;;6.86;100.00
63903;BME280;50072;50.678;13.938;2023-05-25T04:37:09;100346.59;;;6.95;100.00
63903;BME280;50072;50.678;13.938;2023-05-25T04:39:35;100359.91;;;7.04;100.00
63903;BME280;50072;50.678;13.938;2023-05-25T04:42:01;100353.72;;;7.08;100.00
63903;BME280;50072;50.678;13.938;2023-05-25T04:44:31;100366.13;;;7.23;100.00
63903;BME280;50072;50.678;13.938;2023-05-25T04:46:58;100358.13;;;7.33;100.00
63903;BME280;50072;50.678;13.938;2023-05-25T04:49:27;100358.13;;;7.42;100.00
63903;BME280;50072;50.678;13.938;2023-05-25T04:51:53;100362.53;;;7.51;100.00
63903;BME280;50072;50.678;13.938;2023-05-25T04:54:19;100358.97;;;7.55;100.00
63903;BME280;50072;50.678;13.938;2023-05-25T04:56:45;100350.06;;;7.65;100.00
63903;BME280;50072;50.678;13.938;2023-05-25T04:59:11;100351.84;;;7.72;100.00
63903;BME280;50072;50.678;13.938;2023-05-25T05:01:37;100356.25;;;7.76;100.00
63903;BME280;50072;50.678;13.938;2023-05-25T05:04:07;100353.59;;;7.83;99.68
63903;BME280;50072;50.678;13.938;2023-05-25T05:06:34;100357.16;;;7.91;100.00
63903;BME280;50072;50.678;13.938;2023-05-25T05:09:01;100354.47;;;7.95;98.04
63903;BME280;50072;50.678;13.938;2023-05-25T05:11:28;100357.97;;;8.07;98.17
63903;BME280;50072;50.678;13.938;2023-05-25T05:13:54;100357.06;;;8.11;97.73
63903;BME280;50072;50.678;13.938;2023-05-25T05:16:21;100357.94;;;8.11;97.10
63903;BME280;50072;50.678;13.938;2023-05-25T05:18:47;100352.63;;;8.11;97.67
63903;BME280;50072;50.678;13.938;2023-05-25T05:21:14;100350.81;;;8.17;97.43
63903;BME280;50072;50.678;13.938;2023-05-25T05:23:41;100355.25;;;8.24;97.51
63903;BME280;50072;50.678;13.938;2023-05-25T05:26:08;100348.09;;;8.26;97.36
63903;BME280;50072;50.678;13.938;2023-05-25T05:28:36;100347.16;;;8.35;98.03
63903;BME280;50072;50.678;13.938;2023-05-25T05:31:03;100360.47;;;8.49;97.25
63903;BME280;50072;50.678;13.938;2023-05-25T05:33:28;100356.91;;;8.50;97.49
63903;BME280;50072;50.678;13.938;2023-05-25T05:35:56;100364.88;;;8.57;97.36
63903;BME280;50072;50.678;13.938;2023-05-25T05:38:21;100363.91;;;8.66;97.48
63903;BME280;50072;50.678;13.938;2023-05-25T05:40:49;100371.09;;;8.61;98.07
63903;BME280;50072;50.678;13.938;2023-05-25T05:43:15;100364.81;;;8.63;98.29
63903;BME280;50072;50.678;13.938;2023-05-25T05:45:41;100363.00;;;8.73;98.69
63903;BME280;50072;50.678;13.938;2023-05-25T05:48:07;100367.38;;;8.80;98.06
63903;BME280;50072;50.678;13.938;2023-05-25T05:50:36;100362.88;;;8.90;97.18
63903;BME280;50072;50.678;13.938;2023-05-25T05:53:03;100363.72;;;8.97;96.79
63903;BME280;50072;50.678;13.938;2023-05-25T05:55:30;100360.97;;;9.05;97.94
63903;BME280;50072;50.678;13.938;2023-05-25T05:57:56;100358.22;;;9.17;97.20
63903;BME280;50072;50.678;13.938;2023-05-25T06:00:22;100359.94;;;9.26;97.22
63903;BME280;50072;50.678;13.938;2023-05-25T06:02:49;100366.03;;;9.40;98.53
63903;BME280;50072;50.678;13.938;2023-05-25T06:05:16;100365.97;;;9.49;97.03
63903;BME280;50072;50.678;13.938;2023-05-25T06:07:42;100366.75;;;9.61;94.77
63903;BME280;50072;50.678;13.938;2023-05-25T06:10:10;100359.53;;;9.71;94.70
63903;BME280;50072;50.678;13.938;2023-05-25T06:12:37;100354.09;;;9.78;95.00
63903;BME280;50072;50.678;13.938;2023-05-25T06:15:03;100362.84;;;9.91;94.41
63903;BME280;50072;50.678;13.938;2023-05-25T06:17:36;100363.69;;;9.98;94.19
63903;BME280;50072;50.678;13.938;2023-05-25T06:20:07;100366.22;;;10.07;94.12
63903;BME280;50072;50.678;13.938;2023-05-25T06:22:39;100350.91;;;10.20;94.20
63903;BME280;50072;50.678;13.938;2023-05-25T06:25:06;100354.34;;;10.34;93.52
63903;BME280;50072;50.678;13.938;2023-05-25T06:27:35;100351.53;;;10.45;91.30
63903;BME280;50072;50.678;13.938;2023-05-25T06:30:02;100351.38;;;10.58;91.14
63903;BME280;50072;50.678;13.938;2023-05-25T06:32:27;100353.81;;;10.71;91.56
63903;BME280;50072;50.678;13.938;2023-05-25T06:34:53;100349.16;;;10.86;90.83
63903;BME280;50072;50.678;13.938;2023-05-25T06:37:19;100354.22;;;11.06;90.27
63903;BME280;50072;50.678;13.938;2023-05-25T06:39:45;100350.28;;;11.26;90.04
63903;BME280;50072;50.678;13.938;2023-05-25T06:42:11;100351.00;;;11.37;88.59
63903;BME280;50072;50.678;13.938;2023-05-25T06:44:37;100348.09;;;11.51;86.97
63903;BME280;50072;50.678;13.938;2023-05-25T06:47:03;100352.28;;;11.64;84.64
63903;BME280;50072;50.678;13.938;2023-05-25T06:49:29;100345.78;;;11.79;84.59
63903;BME280;50072;50.678;13.938;2023-05-25T06:51:55;100341.09;;;11.90;83.53
63903;BME280;50072;50.678;13.938;2023-05-25T06:54:21;100338.06;;;12.09;84.25
63903;BME280;50072;50.678;13.938;2023-05-25T06:56:47;100347.59;;;12.24;82.93
63903;BME280;50072;50.678;13.938;2023-05-25T06:59:13;100337.63;;;12.31;79.50
63903;BME280;50072;50.678;13.938;2023-05-25T07:01:39;100335.59;;;12.42;78.76
63903;BME280;50072;50.678;13.938;2023-05-25T07:04:05;100334.44;;;12.52;78.90
63903;BME280;50072;50.678;13.938;2023-05-25T07:06:31;100334.22;;;12.63;78.09
63903;BME280;50072;50.678;13.938;2023-05-25T07:08:57;100333.78;;;12.82;73.66
63903;BME280;50072;50.678;13.938;2023-05-25T07:11:23;100338.75;;;12.99;73.19
63903;BME280;50072;50.678;13.938;2023-05-25T07:13:49;100330.34;;;13.14;72.66
63903;BME280;50072;50.678;13.938;2023-05-25T07:16:15;100326.31;;;13.30;71.87
63903;BME280;50072;50.678;13.938;2023-05-25T07:18:41;100327.81;;;13.42;70.21
63903;BME280;50072;50.678;13.938;2023-05-25T07:21:07;100320.34;;;13.55;70.67
63903;BME280;50072;50.678;13.938;2023-05-25T07:23:35;100320.06;;;13.64;67.55
63903;BME280;50072;50.678;13.938;2023-05-25T07:26:01;100319.75;;;13.77;67.56
63903;BME280;50072;50.678;13.938;2023-05-25T07:28:27;100319.19;;;13.97;66.75
63903;BME280;50072;50.678;13.938;2023-05-25T07:30:53;100323.03;;;14.20;65.38
63903;BME280;50072;50.678;13.938;2023-05-25T07:33:19;100326.13;;;14.36;65.63
63903;BME280;50072;50.678;13.938;2023-05-25T07:35:44;100320.22;;;14.53;66.50
63903;BME280;50072;50.678;13.938;2023-05-25T07:38:10;100322.38;;;14.71;64.22
63903;BME280;50072;50.678;13.938;2023-05-25T07:40:36;100316.25;;;14.94;62.35
63903;BME280;50072;50.678;13.938;2023-05-25T07:43:02;100324.25;;;15.24;60.43
63903;BME280;50072;50.678;13.938;2023-05-25T07:45:28;100328.59;;;15.55;58.61
63903;BME280;50072;50.678;13.938;2023-05-25T07:47:54;100320.88;;;15.69;56.10
63903;BME280;50072;50.678;13.938;2023-05-25T07:50:20;100338.09;;;15.92;55.68
63903;BME280;50072;50.678;13.938;2023-05-25T07:52:46;100335.78;;;16.07;56.38
63903;BME280;50072;50.678;13.938;2023-05-25T07:55:12;100330.84;;;16.18;55.19
63903;BME280;50072;50.678;13.938;2023-05-25T07:57:38;100328.44;;;16.34;54.89
63903;BME280;50072;50.678;13.938;2023-05-25T08:00:04;100333.31;;;16.48;53.82
63903;BME280;50072;50.678;13.938;2023-05-25T08:02:32;100335.16;;;16.69;53.64
63903;BME280;50072;50.678;13.938;2023-05-25T08:04:58;100340.56;;;16.69;51.81
63903;BME280;50072;50.678;13.938;2023-05-25T08:07:31;100331.28;;;16.77;50.04
63903;BME280;50072;50.678;13.938;2023-05-25T08:09:58;100337.25;;;16.85;51.06
63903;BME280;50072;50.678;13.938;2023-05-25T08:12:24;100336.41;;;17.06;50.65
63903;BME280;50072;50.678;13.938;2023-05-25T08:14:50;100326.97;;;17.17;51.11
63903;BME280;50072;50.678;13.938;2023-05-25T08:17:16;100326.06;;;17.38;51.79
63903;BME280;50072;50.678;13.938;2023-05-25T08:19:42;100327.16;;;17.55;49.23
63903;BME280;50072;50.678;13.938;2023-05-25T08:22:08;100327.97;;;17.57;50.03
63903;BME280;50072;50.678;13.938;2023-05-25T08:24:34;100334.56;;;17.72;48.64
63903;BME280;50072;50.678;13.938;2023-05-25T08:27:00;100324.50;;;17.96;50.97
63903;BME280;50072;50.678;13.938;2023-05-25T08:29:26;100326.56;;;18.10;51.60
63903;BME280;50072;50.678;13.938;2023-05-25T08:31:52;100324.19;;;18.23;45.67
63903;BME280;50072;50.678;13.938;2023-05-25T08:34:18;100323.66;;;18.34;48.04
63903;BME280;50072;50.678;13.938;2023-05-25T08:36:44;100325.66;;;18.49;46.67
63903;BME280;50072;50.678;13.938;2023-05-25T08:39:10;100319.50;;;18.65;47.63
63903;BME280;50072;50.678;13.938;2023-05-25T08:41:40;100323.53;;;18.75;48.59
63903;BME280;50072;50.678;13.938;2023-05-25T08:44:06;100326.59;;;18.86;45.76
63903;BME280;50072;50.678;13.938;2023-05-25T08:46:33;100331.88;;;18.89;43.81
63903;BME280;50072;50.678;13.938;2023-05-25T08:49:09;100325.81;;;19.21;44.60
63903;BME280;50072;50.678;13.938;2023-05-25T08:51:37;100326.47;;;19.43;42.37
63903;BME280;50072;50.678;13.938;2023-05-25T08:54:07;100323.28;;;19.35;42.35
63903;BME280;50072;50.678;13.938;2023-05-25T08:56:38;100318.72;;;19.71;45.01
63903;BME280;50072;50.678;13.938;2023-05-25T08:59:20;100316.75;;;19.92;43.79
63903;BME280;50072;50.678;13.938;2023-05-25T09:01:55;100313.91;;;20.11;42.19
63903;BME280;50072;50.678;13.938;2023-05-25T09:04:24;100314.94;;;20.42;43.84
63903;BME280;50072;50.678;13.938;2023-05-25T09:06:50;100317.47;;;20.45;40.21
63903;BME280;50072;50.678;13.938;2023-05-25T09:09:16;100317.75;;;20.56;40.81
63903;BME280;50072;50.678;13.938;2023-05-25T09:11:43;100321.69;;;20.68;40.87
63903;BME280;50072;50.678;13.938;2023-05-25T09:14:10;100320.53;;;20.88;41.40
63903;BME280;50072;50.678;13.938;2023-05-25T09:16:36;100316.38;;;21.13;42.12
63903;BME280;50072;50.678;13.938;2023-05-25T09:19:02;100317.91;;;21.33;40.79
63903;BME280;50072;50.678;13.938;2023-05-25T09:21:28;100328.13;;;21.29;39.83
63903;BME280;50072;50.678;13.938;2023-05-25T09:23:54;100315.63;;;21.41;39.21
63903;BME280;50072;50.678;13.938;2023-05-25T09:26:20;100319.13;;;21.43;39.32
63903;BME280;50072;50.678;13.938;2023-05-25T09:28:47;100323.50;;;21.62;37.03
63903;BME280;50072;50.678;13.938;2023-05-25T09:31:14;100320.78;;;21.76;37.50
63903;BME280;50072;50.678;13.938;2023-05-25T09:33:40;100320.78;;;21.76;37.43
63903;BME280;50072;50.678;13.938;2023-05-25T09:36:07;100315.00;;;22.26;36.58
63903;BME280;50072;50.678;13.938;2023-05-25T09:38:33;100318.75;;;22.39;35.65
63903;BME280;50072;50.678;13.938;2023-05-25T09:41:00;100322.06;;;22.86;36.66
63903;BME280;50072;50.678;13.938;2023-05-25T09:43:26;100315.38;;;22.77;35.15
63903;BME280;50072;50.678;13.938;2023-05-25T09:45:52;100326.66;;;22.85;37.90
63903;BME280;50072;50.678;13.938;2023-05-25T09:48:18;100330.03;;;22.76;34.75
63903;BME280;50072;50.678;13.938;2023-05-25T09:50:46;100328.47;;;22.57;34.22
63903;BME280;50072;50.678;13.938;2023-05-25T09:53:12;100336.84;;;22.69;34.63
63903;BME280;50072;50.678;13.938;2023-05-25T09:55:38;100315.00;;;22.83;34.84
63903;BME280;50072;50.678;13.938;2023-05-25T09:58:04;100323.34;;;22.80;34.30
63903;BME280;50072;50.678;13.938;2023-05-25T10:00:30;100327.16;;;22.92;35.11
63903;BME280;50072;50.678;13.938;2023-05-25T10:02:56;100331.38;;;22.83;33.68
63903;BME280;50072;50.678;13.938;2023-05-25T10:05:22;100331.41;;;23.38;34.65
63903;BME280;50072;50.678;13.938;2023-05-25T10:07:49;100320.56;;;23.76;33.49
63903;BME280;50072;50.678;13.938;2023-05-25T10:10:18;100321.16;;;24.20;33.81
63903;BME280;50072;50.678;13.938;2023-05-25T10:12:44;100316.66;;;24.19;32.81
63903;BME280;50072;50.678;13.938;2023-05-25T10:15:11;100321.94;;;24.85;32.05
63903;BME280;50072;50.678;13.938;2023-05-25T10:17:50;100316.31;;;24.62;31.58
63903;BME280;50072;50.678;13.938;2023-05-25T10:20:17;100317.69;;;25.05;30.37
63903;BME280;50072;50.678;13.938;2023-05-25T10:22:48;100321.91;;;25.22;31.67
63903;BME280;50072;50.678;13.938;2023-05-25T10:26:04;100315.38;;;24.88;29.98
63903;BME280;50072;50.678;13.938;2023-05-25T10:30:46;100329.31;;;25.09;30.97
63903;BME280;50072;50.678;13.938;2023-05-25T10:33:13;100318.84;;;25.51;29.85
63903;BME280;50072;50.678;13.938;2023-05-25T10:35:42;100323.38;;;25.75;29.25
63903;BME280;50072;50.678;13.938;2023-05-25T10:38:09;100323.75;;;26.06;29.26
63903;BME280;50072;50.678;13.938;2023-05-25T10:40:35;100326.28;;;26.43;27.92
63903;BME280;50072;50.678;13.938;2023-05-25T10:43:04;100319.88;;;26.65;29.39
63903;BME280;50072;50.678;13.938;2023-05-25T10:45:31;100325.50;;;26.86;27.92
63903;BME280;50072;50.678;13.938;2023-05-25T10:47:57;100324.53;;;27.63;27.49
63903;BME280;50072;50.678;13.938;2023-05-25T10:50:25;100321.63;;;28.49;26.26
63903;BME280;50072;50.678;13.938;2023-05-25T10:55:28;100322.41;;;29.02;24.77
63903;BME280;50072;50.678;13.938;2023-05-25T10:58:11;100310.84;;;29.76;23.12
63903;BME280;50072;50.678;13.938;2023-05-25T11:00:38;100306.34;;;30.42;23.32
63903;BME280;50072;50.678;13.938;2023-05-25T11:03:04;100306.19;;;30.99;22.34
63903;BME280;50072;50.678;13.938;2023-05-25T11:05:33;100310.22;;;31.33;21.74
63903;BME280;50072;50.678;13.938;2023-05-25T11:08:01;100308.09;;;31.63;22.13
63903;BME280;50072;50.678;13.938;2023-05-25T11:10:50;100304.78;;;33.07;21.10
63903;BME280;50072;50.678;13.938;2023-05-25T11:13:36;100303.50;;;34.02;18.87
63903;BME280;50072;50.678;13.938;2023-05-25T11:18:58;100304.44;;;34.50;19.14
63903;BME280;50072;50.678;13.938;2023-05-25T11:26:24;100293.38;;;36.95;15.66
63903;BME280;50072;50.678;13.938;2023-05-25T11:28:52;100297.25;;;37.31;16.40
63903;BME280;50072;50.678;13.938;2023-05-25T11:31:20;100296.59;;;37.14;16.37
63903;BME280;50072;50.678;13.938;2023-05-25T11:33:47;100306.31;;;37.76;15.47
63903;BME280;50072;50.678;13.938;2023-05-25T11:36:14;100294.88;;;37.99;16.11
63903;BME280;50072;50.678;13.938;2023-05-25T11:38:44;100304.59;;;38.32;15.03
63903;BME280;50072;50.678;13.938;2023-05-25T11:41:15;100301.44;;;38.77;15.29
63903;BME280;50072;50.678;13.938;2023-05-25T11:43:41;100302.34;;;38.49;14.20
63903;BME280;50072;50.678;13.938;2023-05-25T11:46:08;100291.72;;;37.38;14.35
63903;BME280;50072;50.678;13.938;2023-05-25T11:48:34;100295.47;;;37.45;14.92
63903;BME280;50072;50.678;13.938;2023-05-25T11:51:04;100289.28;;;38.21;15.54
63903;BME280;50072;50.678;13.938;2023-05-25T11:53:30;100295.00;;;38.83;15.29
63903;BME280;50072;50.678;13.938;2023-05-25T11:55:56;100293.72;;;38.92;14.95
63903;BME280;50072;50.678;13.938;2023-05-25T11:58:22;100292.47;;;38.53;14.86
63903;BME280;50072;50.678;13.938;2023-05-25T12:00:48;100291.22;;;39.04;14.69
63903;BME280;50072;50.678;13.938;2023-05-25T12:03:30;100283.63;;;39.80;13.73
63903;BME280;50072;50.678;13.938;2023-05-25T12:05:58;100281.03;;;39.72;14.12
63903;BME280;50072;50.678;13.938;2023-05-25T12:08:34;100278.00;;;39.80;14.13
63903;BME280;50072;50.678;13.938;2023-05-25T12:11:01;100269.75;;;40.38;14.55
63903;BME280;50072;50.678;13.938;2023-05-25T12:13:28;100272.84;;;40.03;13.16
63903;BME280;50072;50.678;13.938;2023-05-25T12:15:55;100264.75;;;39.13;13.43
63903;BME280;50072;50.678;13.938;2023-05-25T12:18:27;100261.69;;;39.01;13.40
63903;BME280;50072;50.678;13.938;2023-05-25T12:20:55;100260.72;;;39.36;13.73
63903;BME280;50072;50.678;13.938;2023-05-25T12:23:21;100255.19;;;39.69;13.68
63903;BME280;50072;50.678;13.938;2023-05-25T12:25:47;100262.22;;;40.26;12.42
63903;BME280;50072;50.678;13.938;2023-05-25T12:28:14;100265.13;;;40.71;12.13
63903;BME280;50072;50.678;13.938;2023-05-25T12:30:41;100264.88;;;40.07;12.83
63903;BME280;50072;50.678;13.938;2023-05-25T12:33:07;100262.16;;;40.59;12.92
63903;BME280;50072;50.678;13.938;2023-05-25T12:35:45;100258.16;;;40.15;12.46
63903;BME280;50072;50.678;13.938;2023-05-25T12:38:21;100256.91;;;39.84;13.16
63903;BME280;50072;50.678;13.938;2023-05-25T12:41:03;100260.31;;;39.79;13.90
63903;BME280;50072;50.678;13.938;2023-05-25T12:43:39;100263.78;;;39.81;13.42
63903;BME280;50072;50.678;13.938;2023-05-25T12:46:07;100247.38;;;39.98;13.28
63903;BME280;50072;50.678;13.938;2023-05-25T12:48:33;100250.44;;;39.77;13.56
63903;BME280;50072;50.678;13.938;2023-05-25T12:50:59;100253.41;;;39.42;13.98
63903;BME280;50072;50.678;13.938;2023-05-25T12:53:25;100254.50;;;39.87;13.35
63903;BME280;50072;50.678;13.938;2023-05-25T12:56:02;100244.91;;;39.01;13.79
63903;BME280;50072;50.678;13.938;2023-05-25T12:58:28;100244.81;;;39.70;13.68
63903;BME280;50072;50.678;13.938;2023-05-25T13:00:54;100250.63;;;39.95;13.59
63903;BME280;50072;50.678;13.938;2023-05-25T13:03:20;100236.56;;;40.22;12.90
63903;BME280;50072;50.678;13.938;2023-05-25T13:05:46;100243.84;;;40.57;13.81
63903;BME280;50072;50.678;13.938;2023-05-25T13:08:12;100244.97;;;40.22;13.32